sensor_id;sensor_type;location;lat;lon;timestamp;P1;durP1;ratioP1;P2;durP2;ratioP2
63298;SDS011;54535;52.138;5.398;2022-07-04T00:00:02;5.55;;;1.83;;
63298;SDS011;54535;52.138;5.398;2022-07-04T00:02:30;6.05;;;1.83;;
63298;SDS011;54535;52.138;5.398;2022-07-04T00:04:58;4.05;;;1.70;;
63298;SDS011;54535;52.138;5.398;2022-07-04T00:07:25;3.33;;;1.77;;
63298;SDS011;54535;52.138;5.398;2022-07-04T00:09:52;3.70;;;1.75;;
63298;SDS011;54535;52.138;5.398;2022-07-04T00:12:18;3.07;;;1.60;;
63298;SDS011;54535;52.138;5.398;2022-07-04T00:14:45;5.25;;;1.88;;
63298;SDS011;54535;52.138;5.398;2022-07-04T00:17:12;5.70;;;2.40;;
63298;SDS011;54535;52.138;5.398;2022-07-04T00:19:39;5.68;;;2.30;;
63298;SDS011;54535;52.138;5.398;2022-07-04T00:22:06;5.80;;;2.05;;
63298;SDS011;54535;52.138;5.398;2022-07-04T00:24:32;10.48;;;2.60;;
63298;SDS011;54535;52.138;5.398;2022-07-04T00:26:59;6.23;;;2.30;;
63298;SDS011;54535;52.138;5.398;2022-07-04T00:29:26;7.83;;;2.20;;
63298;SDS011;54535;52.138;5.398;2022-07-04T00:31:53;5.72;;;2.33;;
63298;SDS011;54535;52.138;5.398;2022-07-04T00:34:20;4.80;;;2.20;;
63298;SDS011;54535;52.138;5.398;2022-07-04T00:36:47;4.85;;;2.30;;
63298;SDS011;54535;52.138;5.398;2022-07-04T00:39:13;8.23;;;2.70;;
63298;SDS011;54535;52.138;5.398;2022-07-04T00:41:40;9.45;;;2.60;;
63298;SDS011;54535;52.138;5.398;2022-07-04T00:44:08;5.07;;;2.33;;
63298;SDS011;54535;52.138;5.398;2022-07-04T00:46:39;6.13;;;2.40;;
63298;SDS011;54535;52.138;5.398;2022-07-04T00:49:09;4.57;;;2.38;;
63298;SDS011;54535;52.138;5.398;2022-07-04T00:51:37;12.05;;;2.83;;
63298;SDS011;54535;52.138;5.398;2022-07-04T00:54:05;4.65;;;2.30;;
63298;SDS011;54535;52.138;5.398;2022-07-04T00:56:36;6.32;;;2.20;;
63298;SDS011;54535;52.138;5.398;2022-07-04T00:59:05;5.47;;;2.20;;
63298;SDS011;54535;52.138;5.398;2022-07-04T01:01:32;6.55;;;1.98;;
63298;SDS011;54535;52.138;5.398;2022-07-04T01:04:00;9.07;;;2.10;;
63298;SDS011;54535;52.138;5.398;2022-07-04T01:06:28;4.65;;;2.20;;
63298;SDS011;54535;52.138;5.398;2022-07-04T01:08:56;5.35;;;2.25;;
63298;SDS011;54535;52.138;5.398;2022-07-04T01:11:23;6.07;;;2.07;;
63298;SDS011;54535;52.138;5.398;2022-07-04T01:13:49;3.27;;;2.20;;
63298;SDS011;54535;52.138;5.398;2022-07-04T01:16:16;3.35;;;2.00;;
63298;SDS011;54535;52.138;5.398;2022-07-04T01:18:43;5.83;;;2.27;;
63298;SDS011;54535;52.138;5.398;2022-07-04T01:21:10;5.63;;;2.10;;
63298;SDS011;54535;52.138;5.398;2022-07-04T01:23:37;4.97;;;2.20;;
63298;SDS011;54535;52.138;5.398;2022-07-04T01:26:05;3.85;;;2.20;;
63298;SDS011;54535;52.138;5.398;2022-07-04T01:28:32;4.57;;;2.28;;
63298;SDS011;54535;52.138;5.398;2022-07-04T01:30:59;6.70;;;2.33;;
63298;SDS011;54535;52.138;5.398;2022-07-04T01:33:26;6.60;;;2.55;;
63298;SDS011;54535;52.138;5.398;2022-07-04T01:35:53;6.90;;;2.22;;
63298;SDS011;54535;52.138;5.398;2022-07-04T01:38:20;4.10;;;2.30;;
63298;SDS011;54535;52.138;5.398;2022-07-04T01:40:47;4.63;;;2.20;;
63298;SDS011;54535;52.138;5.398;2022-07-04T01:43:14;4.47;;;2.30;;
63298;SDS011;54535;52.138;5.398;2022-07-04T01:45:41;5.50;;;2.20;;
63298;SDS011;54535;52.138;5.398;2022-07-04T01:48:08;5.80;;;2.13;;
63298;SDS011;54535;52.138;5.398;2022-07-04T01:50:36;5.88;;;2.35;;
63298;SDS011;54535;52.138;5.398;2022-07-04T01:53:03;5.85;;;2.30;;
63298;SDS011;54535;52.138;5.398;2022-07-04T01:55:30;7.27;;;2.33;;
63298;SDS011;54535;52.138;5.398;2022-07-04T01:57:58;4.82;;;2.10;;
63298;SDS011;54535;52.138;5.398;2022-07-04T02:00:25;3.65;;;2.20;;
63298;SDS011;54535;52.138;5.398;2022-07-04T02:03:11;4.32;;;2.13;;
63298;SDS011;54535;52.138;5.398;2022-07-04T02:05:38;4.60;;;2.53;;
63298;SDS011;54535;52.138;5.398;2022-07-04T02:08:05;5.35;;;2.45;;
63298;SDS011;54535;52.138;5.398;2022-07-04T02:13:00;5.32;;;2.35;;
63298;SDS011;54535;52.138;5.398;2022-07-04T02:15:28;7.30;;;2.40;;
63298;SDS011;54535;52.138;5.398;2022-07-04T02:18:00;6.07;;;2.17;;
63298;SDS011;54535;52.138;5.398;2022-07-04T02:20:27;5.50;;;2.10;;
63298;SDS011;54535;52.138;5.398;2022-07-04T02:22:54;2.80;;;2.00;;
63298;SDS011;54535;52.138;5.398;2022-07-04T02:25:21;5.95;;;2.33;;
63298;SDS011;54535;52.138;5.398;2022-07-04T02:27:53;5.05;;;2.08;;
63298;SDS011;54535;52.138;5.398;2022-07-04T02:30:21;4.82;;;2.33;;
63298;SDS011;54535;52.138;5.398;2022-07-04T02:32:48;6.03;;;2.10;;
63298;SDS011;54535;52.138;5.398;2022-07-04T02:35:15;4.43;;;2.43;;
63298;SDS011;54535;52.138;5.398;2022-07-04T02:37:42;4.93;;;2.30;;
63298;SDS011;54535;52.138;5.398;2022-07-04T02:40:09;3.42;;;2.03;;
63298;SDS011;54535;52.138;5.398;2022-07-04T02:42:36;5.10;;;2.40;;
63298;SDS011;54535;52.138;5.398;2022-07-04T02:45:03;5.60;;;2.58;;
63298;SDS011;54535;52.138;5.398;2022-07-04T02:47:31;4.63;;;2.33;;
63298;SDS011;54535;52.138;5.398;2022-07-04T02:49:58;4.50;;;2.25;;
63298;SDS011;54535;52.138;5.398;2022-07-04T02:52:28;5.47;;;2.75;;
63298;SDS011;54535;52.138;5.398;2022-07-04T02:57:22;4.03;;;2.13;;
63298;SDS011;54535;52.138;5.398;2022-07-04T02:59:49;4.40;;;2.22;;
63298;SDS011;54535;52.138;5.398;2022-07-04T03:02:16;5.45;;;2.20;;
63298;SDS011;54535;52.138;5.398;2022-07-04T03:04:42;5.97;;;2.38;;
63298;SDS011;54535;52.138;5.398;2022-07-04T03:07:09;4.30;;;2.80;;
63298;SDS011;54535;52.138;5.398;2022-07-04T03:09:36;4.17;;;2.73;;
63298;SDS011;54535;52.138;5.398;2022-07-04T03:12:03;5.82;;;2.67;;
63298;SDS011;54535;52.138;5.398;2022-07-04T03:14:30;5.57;;;2.83;;
63298;SDS011;54535;52.138;5.398;2022-07-04T03:16:59;5.88;;;3.20;;
63298;SDS011;54535;52.138;5.398;2022-07-04T03:19:26;7.80;;;3.13;;
63298;SDS011;54535;52.138;5.398;2022-07-04T03:21:53;6.37;;;3.60;;
63298;SDS011;54535;52.138;5.398;2022-07-04T03:24:19;5.13;;;2.65;;
63298;SDS011;54535;52.138;5.398;2022-07-04T03:26:46;5.50;;;2.77;;
63298;SDS011;54535;52.138;5.398;2022-07-04T03:29:13;5.45;;;2.78;;
63298;SDS011;54535;52.138;5.398;2022-07-04T03:31:40;4.85;;;2.85;;
63298;SDS011;54535;52.138;5.398;2022-07-04T03:34:06;9.95;;;3.10;;
63298;SDS011;54535;52.138;5.398;2022-07-04T03:36:33;5.40;;;2.78;;
63298;SDS011;54535;52.138;5.398;2022-07-04T03:39:00;6.28;;;2.70;;
63298;SDS011;54535;52.138;5.398;2022-07-04T03:41:26;5.22;;;3.05;;
63298;SDS011;54535;52.138;5.398;2022-07-04T03:43:53;6.53;;;3.03;;
63298;SDS011;54535;52.138;5.398;2022-07-04T03:46:20;5.15;;;3.28;;
63298;SDS011;54535;52.138;5.398;2022-07-04T03:48:47;9.33;;;4.10;;
63298;SDS011;54535;52.138;5.398;2022-07-04T03:51:13;9.57;;;4.60;;
63298;SDS011;54535;52.138;5.398;2022-07-04T03:53:41;8.37;;;4.07;;
63298;SDS011;54535;52.138;5.398;2022-07-04T03:58:35;7.45;;;4.45;;
63298;SDS011;54535;52.138;5.398;2022-07-04T04:01:02;7.50;;;4.45;;
63298;SDS011;54535;52.138;5.398;2022-07-04T04:03:29;7.95;;;4.57;;
63298;SDS011;54535;52.138;5.398;2022-07-04T04:06:15;10.85;;;5.43;;
63298;SDS011;54535;52.138;5.398;2022-07-04T04:08:42;8.63;;;5.00;;
63298;SDS011;54535;52.138;5.398;2022-07-04T04:11:09;10.45;;;5.55;;
63298;SDS011;54535;52.138;5.398;2022-07-04T04:13:35;8.63;;;5.27;;
63298;SDS011;54535;52.138;5.398;2022-07-04T04:16:02;10.90;;;4.85;;
63298;SDS011;54535;52.138;5.398;2022-07-04T04:18:29;7.32;;;5.15;;
63298;SDS011;54535;52.138;5.398;2022-07-04T04:20:56;12.73;;;5.35;;
63298;SDS011;54535;52.138;5.398;2022-07-04T04:23:22;10.18;;;5.72;;
63298;SDS011;54535;52.138;5.398;2022-07-04T04:25:49;11.45;;;6.07;;
63298;SDS011;54535;52.138;5.398;2022-07-04T04:28:21;9.23;;;5.72;;
63298;SDS011;54535;52.138;5.398;2022-07-04T04:33:18;12.05;;;5.97;;
63298;SDS011;54535;52.138;5.398;2022-07-04T04:35:45;10.63;;;5.72;;
63298;SDS011;54535;52.138;5.398;2022-07-04T04:38:12;12.45;;;6.70;;
63298;SDS011;54535;52.138;5.398;2022-07-04T04:40:38;11.77;;;6.20;;
63298;SDS011;54535;52.138;5.398;2022-07-04T04:43:05;10.00;;;6.40;;
63298;SDS011;54535;52.138;5.398;2022-07-04T04:45:32;13.27;;;6.05;;
63298;SDS011;54535;52.138;5.398;2022-07-04T04:47:58;9.77;;;5.55;;
63298;SDS011;54535;52.138;5.398;2022-07-04T04:50:25;10.95;;;5.82;;
63298;SDS011;54535;52.138;5.398;2022-07-04T04:52:52;11.30;;;5.57;;
63298;SDS011;54535;52.138;5.398;2022-07-04T04:55:18;10.00;;;6.03;;
63298;SDS011;54535;52.138;5.398;2022-07-04T04:57:45;16.05;;;7.03;;
63298;SDS011;54535;52.138;5.398;2022-07-04T05:00:12;11.05;;;7.28;;
63298;SDS011;54535;52.138;5.398;2022-07-04T05:02:39;11.90;;;6.60;;
63298;SDS011;54535;52.138;5.398;2022-07-04T05:05:06;10.87;;;5.53;;
63298;SDS011;54535;52.138;5.398;2022-07-04T05:07:33;10.90;;;6.30;;
63298;SDS011;54535;52.138;5.398;2022-07-04T05:10:00;10.30;;;6.13;;
63298;SDS011;54535;52.138;5.398;2022-07-04T05:12:28;12.10;;;6.20;;
63298;SDS011;54535;52.138;5.398;2022-07-04T05:14:55;13.90;;;5.70;;
63298;SDS011;54535;52.138;5.398;2022-07-04T05:17:22;9.07;;;5.82;;
63298;SDS011;54535;52.138;5.398;2022-07-04T05:19:49;13.40;;;5.82;;
63298;SDS011;54535;52.138;5.398;2022-07-04T05:22:16;12.00;;;5.97;;
63298;SDS011;54535;52.138;5.398;2022-07-04T05:24:43;12.52;;;6.10;;
63298;SDS011;54535;52.138;5.398;2022-07-04T05:27:10;10.48;;;5.47;;
63298;SDS011;54535;52.138;5.398;2022-07-04T05:29:37;12.65;;;6.07;;
63298;SDS011;54535;52.138;5.398;2022-07-04T05:32:05;10.00;;;5.33;;
63298;SDS011;54535;52.138;5.398;2022-07-04T05:34:32;12.80;;;5.40;;
63298;SDS011;54535;52.138;5.398;2022-07-04T05:36:59;16.35;;;5.95;;
63298;SDS011;54535;52.138;5.398;2022-07-04T05:39:26;13.23;;;5.30;;
63298;SDS011;54535;52.138;5.398;2022-07-04T05:41:53;12.17;;;4.93;;
63298;SDS011;54535;52.138;5.398;2022-07-04T05:44:20;10.45;;;5.10;;
63298;SDS011;54535;52.138;5.398;2022-07-04T05:46:46;10.52;;;4.70;;
63298;SDS011;54535;52.138;5.398;2022-07-04T05:49:13;11.38;;;5.13;;
63298;SDS011;54535;52.138;5.398;2022-07-04T05:51:40;10.70;;;4.95;;
63298;SDS011;54535;52.138;5.398;2022-07-04T05:54:06;10.32;;;4.60;;
63298;SDS011;54535;52.138;5.398;2022-07-04T05:56:33;16.38;;;4.65;;
63298;SDS011;54535;52.138;5.398;2022-07-04T05:59:00;9.65;;;4.80;;
63298;SDS011;54535;52.138;5.398;2022-07-04T06:01:27;11.52;;;4.80;;
63298;SDS011;54535;52.138;5.398;2022-07-04T06:03:53;13.30;;;5.00;;
63298;SDS011;54535;52.138;5.398;2022-07-04T06:06:20;11.88;;;5.03;;
63298;SDS011;54535;52.138;5.398;2022-07-04T06:08:47;13.23;;;5.55;;
63298;SDS011;54535;52.138;5.398;2022-07-04T06:11:14;8.02;;;5.25;;
63298;SDS011;54535;52.138;5.398;2022-07-04T06:13:41;13.77;;;5.60;;
63298;SDS011;54535;52.138;5.398;2022-07-04T06:16:07;15.20;;;6.43;;
63298;SDS011;54535;52.138;5.398;2022-07-04T06:18:34;13.43;;;5.95;;
63298;SDS011;54535;52.138;5.398;2022-07-04T06:21:01;16.20;;;5.63;;
63298;SDS011;54535;52.138;5.398;2022-07-04T06:23:28;12.80;;;5.35;;
63298;SDS011;54535;52.138;5.398;2022-07-04T06:25:55;11.10;;;5.63;;
63298;SDS011;54535;52.138;5.398;2022-07-04T06:28:22;12.23;;;5.80;;
63298;SDS011;54535;52.138;5.398;2022-07-04T06:31:08;10.90;;;5.50;;
63298;SDS011;54535;52.138;5.398;2022-07-04T06:33:37;16.75;;;6.20;;
63298;SDS011;54535;52.138;5.398;2022-07-04T06:36:24;15.13;;;5.90;;
63298;SDS011;54535;52.138;5.398;2022-07-04T06:38:51;11.48;;;5.28;;
63298;SDS011;54535;52.138;5.398;2022-07-04T06:41:18;13.70;;;5.80;;
63298;SDS011;54535;52.138;5.398;2022-07-04T06:43:45;10.70;;;5.90;;
63298;SDS011;54535;52.138;5.398;2022-07-04T06:46:11;10.35;;;5.60;;
63298;SDS011;54535;52.138;5.398;2022-07-04T06:48:38;13.63;;;5.28;;
63298;SDS011;54535;52.138;5.398;2022-07-04T06:51:05;14.47;;;5.80;;
63298;SDS011;54535;52.138;5.398;2022-07-04T06:53:32;16.00;;;5.80;;
63298;SDS011;54535;52.138;5.398;2022-07-04T06:55:59;12.68;;;6.20;;
63298;SDS011;54535;52.138;5.398;2022-07-04T06:58:25;12.68;;;6.00;;
63298;SDS011;54535;52.138;5.398;2022-07-04T07:00:52;8.52;;;4.90;;
63298;SDS011;54535;52.138;5.398;2022-07-04T07:03:19;11.83;;;5.43;;
63298;SDS011;54535;52.138;5.398;2022-07-04T07:05:46;12.80;;;5.88;;
63298;SDS011;54535;52.138;5.398;2022-07-04T07:08:29;11.35;;;6.40;;
63298;SDS011;54535;52.138;5.398;2022-07-04T07:10:56;13.18;;;5.00;;
63298;SDS011;54535;52.138;5.398;2022-07-04T07:13:24;12.90;;;6.60;;
63298;SDS011;54535;52.138;5.398;2022-07-04T07:15:51;11.73;;;6.40;;
63298;SDS011;54535;52.138;5.398;2022-07-04T07:18:17;17.03;;;6.00;;
63298;SDS011;54535;52.138;5.398;2022-07-04T07:20:44;9.33;;;5.60;;
63298;SDS011;54535;52.138;5.398;2022-07-04T07:23:11;18.30;;;6.00;;
63298;SDS011;54535;52.138;5.398;2022-07-04T07:25:38;15.30;;;4.73;;
63298;SDS011;54535;52.138;5.398;2022-07-04T07:28:04;10.85;;;4.55;;
63298;SDS011;54535;52.138;5.398;2022-07-04T07:30:31;10.20;;;4.17;;
63298;SDS011;54535;52.138;5.398;2022-07-04T07:32:58;10.47;;;4.50;;
63298;SDS011;54535;52.138;5.398;2022-07-04T07:35:25;7.53;;;4.13;;
63298;SDS011;54535;52.138;5.398;2022-07-04T07:37:51;10.03;;;3.70;;
63298;SDS011;54535;52.138;5.398;2022-07-04T07:40:18;7.63;;;4.53;;
63298;SDS011;54535;52.138;5.398;2022-07-04T07:42:45;9.23;;;4.03;;
63298;SDS011;54535;52.138;5.398;2022-07-04T07:45:12;9.70;;;4.30;;
63298;SDS011;54535;52.138;5.398;2022-07-04T07:47:38;13.18;;;3.50;;
63298;SDS011;54535;52.138;5.398;2022-07-04T07:50:05;9.03;;;3.57;;
63298;SDS011;54535;52.138;5.398;2022-07-04T07:52:33;7.63;;;2.80;;
63298;SDS011;54535;52.138;5.398;2022-07-04T07:54:59;9.25;;;2.35;;
63298;SDS011;54535;52.138;5.398;2022-07-04T07:57:28;6.97;;;2.80;;
63298;SDS011;54535;52.138;5.398;2022-07-04T07:59:55;7.47;;;2.85;;
63298;SDS011;54535;52.138;5.398;2022-07-04T08:02:22;9.60;;;2.95;;
63298;SDS011;54535;52.138;5.398;2022-07-04T08:05:10;7.88;;;2.35;;
63298;SDS011;54535;52.138;5.398;2022-07-04T08:07:37;5.22;;;2.45;;
63298;SDS011;54535;52.138;5.398;2022-07-04T08:10:05;6.25;;;2.50;;
63298;SDS011;54535;52.138;5.398;2022-07-04T08:12:33;6.90;;;2.80;;
63298;SDS011;54535;52.138;5.398;2022-07-04T08:15:00;7.65;;;2.80;;
63298;SDS011;54535;52.138;5.398;2022-07-04T08:17:32;5.40;;;2.40;;
63298;SDS011;54535;52.138;5.398;2022-07-04T08:19:59;6.60;;;2.35;;
63298;SDS011;54535;52.138;5.398;2022-07-04T08:22:25;4.83;;;2.37;;
63298;SDS011;54535;52.138;5.398;2022-07-04T08:24:52;8.37;;;2.93;;
63298;SDS011;54535;52.138;5.398;2022-07-04T08:27:19;9.90;;;2.70;;
63298;SDS011;54535;52.138;5.398;2022-07-04T08:29:55;6.28;;;2.40;;
63298;SDS011;54535;52.138;5.398;2022-07-04T08:32:22;5.57;;;2.53;;
63298;SDS011;54535;52.138;5.398;2022-07-04T08:34:49;6.15;;;2.30;;
63298;SDS011;54535;52.138;5.398;2022-07-04T08:37:16;4.60;;;2.33;;
63298;SDS011;54535;52.138;5.398;2022-07-04T08:39:42;5.57;;;2.33;;
63298;SDS011;54535;52.138;5.398;2022-07-04T08:42:12;6.65;;;2.33;;
63298;SDS011;54535;52.138;5.398;2022-07-04T08:44:41;4.78;;;2.10;;
63298;SDS011;54535;52.138;5.398;2022-07-04T08:47:18;6.95;;;2.03;;
63298;SDS011;54535;52.138;5.398;2022-07-04T08:50:22;6.95;;;2.20;;
63298;SDS011;54535;52.138;5.398;2022-07-04T08:52:53;5.70;;;2.53;;
63298;SDS011;54535;52.138;5.398;2022-07-04T08:55:22;4.43;;;1.90;;
63298;SDS011;54535;52.138;5.398;2022-07-04T08:58:09;4.93;;;2.35;;
63298;SDS011;54535;52.138;5.398;2022-07-04T09:00:52;4.63;;;1.90;;
63298;SDS011;54535;52.138;5.398;2022-07-04T09:03:20;4.30;;;2.08;;
63298;SDS011;54535;52.138;5.398;2022-07-04T09:05:49;4.68;;;2.03;;
63298;SDS011;54535;52.138;5.398;2022-07-04T09:08:16;5.45;;;1.73;;
63298;SDS011;54535;52.138;5.398;2022-07-04T09:10:43;4.70;;;2.00;;
63298;SDS011;54535;52.138;5.398;2022-07-04T09:13:10;5.77;;;1.70;;
63298;SDS011;54535;52.138;5.398;2022-07-04T09:15:40;6.18;;;2.40;;
63298;SDS011;54535;52.138;5.398;2022-07-04T09:20:46;3.92;;;1.73;;
63298;SDS011;54535;52.138;5.398;2022-07-04T09:23:19;4.83;;;1.90;;
63298;SDS011;54535;52.138;5.398;2022-07-04T09:25:48;4.43;;;1.73;;
63298;SDS011;54535;52.138;5.398;2022-07-04T09:28:32;6.38;;;2.15;;
63298;SDS011;54535;52.138;5.398;2022-07-04T09:30:59;3.72;;;1.60;;
63298;SDS011;54535;52.138;5.398;2022-07-04T09:36:14;2.00;;;1.52;;
63298;SDS011;54535;52.138;5.398;2022-07-04T09:38:42;4.25;;;1.70;;
63298;SDS011;54535;52.138;5.398;2022-07-04T09:41:09;4.68;;;1.70;;
63298;SDS011;54535;52.138;5.398;2022-07-04T09:43:58;3.35;;;1.98;;
63298;SDS011;54535;52.138;5.398;2022-07-04T09:46:26;2.47;;;1.60;;
63298;SDS011;54535;52.138;5.398;2022-07-04T09:48:53;4.30;;;2.03;;
63298;SDS011;54535;52.138;5.398;2022-07-04T09:51:39;3.25;;;1.52;;
63298;SDS011;54535;52.138;5.398;2022-07-04T09:56:41;2.88;;;1.60;;
63298;SDS011;54535;52.138;5.398;2022-07-04T09:59:08;3.65;;;1.90;;
63298;SDS011;54535;52.138;5.398;2022-07-04T10:01:35;3.00;;;1.80;;
63298;SDS011;54535;52.138;5.398;2022-07-04T10:04:02;5.13;;;1.77;;
63298;SDS011;54535;52.138;5.398;2022-07-04T10:06:32;4.53;;;1.80;;
63298;SDS011;54535;52.138;5.398;2022-07-04T10:09:06;3.75;;;1.75;;
63298;SDS011;54535;52.138;5.398;2022-07-04T10:11:46;4.65;;;1.95;;
63298;SDS011;54535;52.138;5.398;2022-07-04T10:14:13;2.03;;;1.42;;
63298;SDS011;54535;52.138;5.398;2022-07-04T10:16:41;4.50;;;1.95;;
63298;SDS011;54535;52.138;5.398;2022-07-04T10:19:08;5.88;;;2.03;;
63298;SDS011;54535;52.138;5.398;2022-07-04T10:21:36;6.22;;;1.67;;
63298;SDS011;54535;52.138;5.398;2022-07-04T10:24:03;4.95;;;1.83;;
63298;SDS011;54535;52.138;5.398;2022-07-04T10:26:30;5.10;;;1.90;;
63298;SDS011;54535;52.138;5.398;2022-07-04T10:28:57;2.58;;;2.05;;
63298;SDS011;54535;52.138;5.398;2022-07-04T10:31:25;4.70;;;2.00;;
63298;SDS011;54535;52.138;5.398;2022-07-04T10:33:54;3.20;;;2.05;;
63298;SDS011;54535;52.138;5.398;2022-07-04T10:36:23;3.03;;;1.80;;
63298;SDS011;54535;52.138;5.398;2022-07-04T10:38:57;4.05;;;2.20;;
63298;SDS011;54535;52.138;5.398;2022-07-04T10:41:29;2.92;;;2.00;;
63298;SDS011;54535;52.138;5.398;2022-07-04T10:43:58;2.72;;;2.03;;
63298;SDS011;54535;52.138;5.398;2022-07-04T10:49:07;4.82;;;2.20;;
63298;SDS011;54535;52.138;5.398;2022-07-04T10:51:45;6.07;;;2.40;;
63298;SDS011;54535;52.138;5.398;2022-07-04T10:54:31;3.40;;;2.05;;
63298;SDS011;54535;52.138;5.398;2022-07-04T11:02:27;3.20;;;1.58;;
63298;SDS011;54535;52.138;5.398;2022-07-04T11:16:05;3.78;;;1.90;;
63298;SDS011;54535;52.138;5.398;2022-07-04T11:18:10;5.75;;;1.90;;
63298;SDS011;54535;52.138;5.398;2022-07-04T11:20:42;4.97;;;1.63;;
63298;SDS011;54535;52.138;5.398;2022-07-04T11:23:12;2.92;;;1.58;;
63298;SDS011;54535;52.138;5.398;2022-07-04T11:25:41;3.55;;;1.80;;
63298;SDS011;54535;52.138;5.398;2022-07-04T11:28:28;4.60;;;1.60;;
63298;SDS011;54535;52.138;5.398;2022-07-04T11:31:10;3.50;;;1.83;;
63298;SDS011;54535;52.138;5.398;2022-07-04T11:36:11;3.03;;;1.80;;
63298;SDS011;54535;52.138;5.398;2022-07-04T11:41:17;2.10;;;1.50;;
63298;SDS011;54535;52.138;5.398;2022-07-04T11:44:04;3.85;;;1.67;;
63298;SDS011;54535;52.138;5.398;2022-07-04T11:47:00;2.90;;;1.60;;
63298;SDS011;54535;52.138;5.398;2022-07-04T11:49:49;5.18;;;1.60;;
63298;SDS011;54535;52.138;5.398;2022-07-04T11:52:19;3.05;;;1.50;;
63298;SDS011;54535;52.138;5.398;2022-07-04T11:55:25;4.10;;;1.60;;
63298;SDS011;54535;52.138;5.398;2022-07-04T11:57:52;3.53;;;1.70;;
63298;SDS011;54535;52.138;5.398;2022-07-04T12:00:26;3.75;;;1.58;;
63298;SDS011;54535;52.138;5.398;2022-07-04T12:02:58;7.78;;;1.60;;
63298;SDS011;54535;52.138;5.398;2022-07-04T12:05:27;2.90;;;1.73;;
63298;SDS011;54535;52.138;5.398;2022-07-04T12:07:54;3.17;;;1.55;;
63298;SDS011;54535;52.138;5.398;2022-07-04T12:10:40;4.05;;;1.70;;
63298;SDS011;54535;52.138;5.398;2022-07-04T12:13:10;2.25;;;1.63;;
63298;SDS011;54535;52.138;5.398;2022-07-04T12:15:42;3.38;;;1.60;;
63298;SDS011;54535;52.138;5.398;2022-07-04T12:20:47;2.60;;;1.80;;
63298;SDS011;54535;52.138;5.398;2022-07-04T12:23:15;3.53;;;1.83;;
63298;SDS011;54535;52.138;5.398;2022-07-04T12:25:47;4.47;;;1.80;;
63298;SDS011;54535;52.138;5.398;2022-07-04T12:28:16;3.13;;;1.70;;
63298;SDS011;54535;52.138;5.398;2022-07-04T12:30:54;3.20;;;1.50;;
63298;SDS011;54535;52.138;5.398;2022-07-04T12:33:25;3.53;;;1.80;;
63298;SDS011;54535;52.138;5.398;2022-07-04T12:35:57;3.85;;;1.38;;
63298;SDS011;54535;52.138;5.398;2022-07-04T12:40:54;4.80;;;1.42;;
63298;SDS011;54535;52.138;5.398;2022-07-04T12:43:24;2.80;;;1.58;;
63298;SDS011;54535;52.138;5.398;2022-07-04T12:48:52;4.38;;;1.85;;
63298;SDS011;54535;52.138;5.398;2022-07-04T12:51:21;4.05;;;1.60;;
63298;SDS011;54535;52.138;5.398;2022-07-04T12:53:53;2.88;;;1.40;;
63298;SDS011;54535;52.138;5.398;2022-07-04T12:56:38;3.42;;;1.50;;
63298;SDS011;54535;52.138;5.398;2022-07-04T12:59:09;1.95;;;1.60;;
63298;SDS011;54535;52.138;5.398;2022-07-04T13:01:39;2.97;;;1.65;;
63298;SDS011;54535;52.138;5.398;2022-07-04T13:04:07;4.18;;;1.60;;
63298;SDS011;54535;52.138;5.398;2022-07-04T13:06:34;5.13;;;1.50;;
63298;SDS011;54535;52.138;5.398;2022-07-04T13:09:02;3.13;;;1.70;;
63298;SDS011;54535;52.138;5.398;2022-07-04T13:11:30;2.28;;;1.50;;
63298;SDS011;54535;52.138;5.398;2022-07-04T13:14:15;3.38;;;1.73;;
63298;SDS011;54535;52.138;5.398;2022-07-04T13:16:42;3.47;;;1.52;;
63298;SDS011;54535;52.138;5.398;2022-07-04T13:19:08;4.50;;;1.60;;
63298;SDS011;54535;52.138;5.398;2022-07-04T13:21:35;3.53;;;1.60;;
63298;SDS011;54535;52.138;5.398;2022-07-04T13:26:29;3.13;;;1.42;;
63298;SDS011;54535;52.138;5.398;2022-07-04T13:28:58;3.85;;;1.33;;
63298;SDS011;54535;52.138;5.398;2022-07-04T13:31:27;3.65;;;1.65;;
63298;SDS011;54535;52.138;5.398;2022-07-04T13:33:54;2.38;;;1.33;;
63298;SDS011;54535;52.138;5.398;2022-07-04T13:36:21;4.22;;;1.77;;
63298;SDS011;54535;52.138;5.398;2022-07-04T13:38:48;1.95;;;1.40;;
63298;SDS011;54535;52.138;5.398;2022-07-04T13:41:30;2.72;;;1.13;;
63298;SDS011;54535;52.138;5.398;2022-07-04T13:44:01;3.17;;;1.60;;
63298;SDS011;54535;52.138;5.398;2022-07-04T13:46:29;3.15;;;1.45;;
63298;SDS011;54535;52.138;5.398;2022-07-04T13:49:01;3.03;;;1.33;;
63298;SDS011;54535;52.138;5.398;2022-07-04T13:51:39;2.15;;;1.55;;
63298;SDS011;54535;52.138;5.398;2022-07-04T13:54:07;2.33;;;1.30;;
63298;SDS011;54535;52.138;5.398;2022-07-04T13:56:34;2.75;;;1.20;;
63298;SDS011;54535;52.138;5.398;2022-07-04T14:01:28;3.70;;;1.50;;
63298;SDS011;54535;52.138;5.398;2022-07-04T14:03:55;4.90;;;1.92;;
63298;SDS011;54535;52.138;5.398;2022-07-04T14:06:22;4.00;;;1.40;;
63298;SDS011;54535;52.138;5.398;2022-07-04T14:08:49;4.35;;;2.05;;
63298;SDS011;54535;52.138;5.398;2022-07-04T14:11:16;5.07;;;1.65;;
63298;SDS011;54535;52.138;5.398;2022-07-04T14:13:43;4.60;;;1.73;;
63298;SDS011;54535;52.138;5.398;2022-07-04T14:16:09;2.72;;;1.73;;
63298;SDS011;54535;52.138;5.398;2022-07-04T14:18:36;3.08;;;1.63;;
63298;SDS011;54535;52.138;5.398;2022-07-04T14:21:03;3.00;;;1.60;;
63298;SDS011;54535;52.138;5.398;2022-07-04T14:23:30;3.85;;;1.38;;
63298;SDS011;54535;52.138;5.398;2022-07-04T14:26:09;3.72;;;1.48;;
63298;SDS011;54535;52.138;5.398;2022-07-04T14:28:38;4.80;;;1.88;;
63298;SDS011;54535;52.138;5.398;2022-07-04T14:36:00;2.30;;;1.30;;
63298;SDS011;54535;52.138;5.398;2022-07-04T14:38:28;3.20;;;1.70;;
63298;SDS011;54535;52.138;5.398;2022-07-04T14:40:54;5.88;;;1.73;;
63298;SDS011;54535;52.138;5.398;2022-07-04T14:43:21;3.67;;;1.42;;
63298;SDS011;54535;52.138;5.398;2022-07-04T14:45:48;4.90;;;1.58;;
63298;SDS011;54535;52.138;5.398;2022-07-04T14:48:15;4.45;;;1.70;;
63298;SDS011;54535;52.138;5.398;2022-07-04T14:50:42;2.25;;;1.30;;
63298;SDS011;54535;52.138;5.398;2022-07-04T14:53:09;3.00;;;1.40;;
63298;SDS011;54535;52.138;5.398;2022-07-04T14:55:37;2.95;;;1.63;;
63298;SDS011;54535;52.138;5.398;2022-07-04T14:58:04;3.47;;;1.60;;
63298;SDS011;54535;52.138;5.398;2022-07-04T15:00:31;1.95;;;1.48;;
63298;SDS011;54535;52.138;5.398;2022-07-04T15:02:58;3.92;;;1.90;;
63298;SDS011;54535;52.138;5.398;2022-07-04T15:10:22;2.80;;;1.50;;
63298;SDS011;54535;52.138;5.398;2022-07-04T15:13:09;2.53;;;1.50;;
63298;SDS011;54535;52.138;5.398;2022-07-04T15:18:09;3.10;;;1.67;;
63298;SDS011;54535;52.138;5.398;2022-07-04T15:23:22;3.60;;;1.83;;
63298;SDS011;54535;52.138;5.398;2022-07-04T15:26:08;5.50;;;1.63;;
63298;SDS011;54535;52.138;5.398;2022-07-04T15:28:35;3.67;;;1.90;;
63298;SDS011;54535;52.138;5.398;2022-07-04T15:31:01;2.17;;;1.30;;
63298;SDS011;54535;52.138;5.398;2022-07-04T15:33:29;2.42;;;1.60;;
63298;SDS011;54535;52.138;5.398;2022-07-04T15:35:56;2.78;;;1.77;;
63298;SDS011;54535;52.138;5.398;2022-07-04T15:38:23;4.78;;;1.60;;
63298;SDS011;54535;52.138;5.398;2022-07-04T15:40:50;6.03;;;1.88;;
63298;SDS011;54535;52.138;5.398;2022-07-04T15:43:18;5.22;;;1.50;;
63298;SDS011;54535;52.138;5.398;2022-07-04T15:45:44;4.97;;;1.75;;
63298;SDS011;54535;52.138;5.398;2022-07-04T15:48:11;4.75;;;1.70;;
63298;SDS011;54535;52.138;5.398;2022-07-04T15:50:38;3.50;;;1.70;;
63298;SDS011;54535;52.138;5.398;2022-07-04T15:53:05;3.08;;;1.63;;
63298;SDS011;54535;52.138;5.398;2022-07-04T15:55:32;2.28;;;1.60;;
63298;SDS011;54535;52.138;5.398;2022-07-04T15:57:58;4.55;;;1.58;;
63298;SDS011;54535;52.138;5.398;2022-07-04T16:00:25;3.10;;;1.85;;
63298;SDS011;54535;52.138;5.398;2022-07-04T16:02:52;2.45;;;1.60;;
63298;SDS011;54535;52.138;5.398;2022-07-04T16:05:19;4.95;;;1.70;;